Kineshma, Russia
Current Conditions -  °F | °C
As of 3:30 AM on Thursday 18 Dec 2014 (Local Time) from UUDL Reporting Station
Clear Clear  
Wind Chill: 27°   Ceiling: Unl
Heat Index: 34°   Visibility: 2.2mi
Dew Point: 32°   Wind: 9mph
Humidity: 93%   Direction: 170°S
Pressure: 29.47"   Gusts: NA
Location:  57.44°N, 42.13°E
Report Text: UUDL 180030Z 17004MPS 3600 SKC 01/M00 Q0998 NOSIG RMK QFE740
Loading
Personal Weather Stations






























Interactive Weather Map New forecast layout! Learn more

10-Day Weather Forecast

Advertisements
Track Severe Weather on mobile